createdAt,value
2018-05-31T00:00:07.829Z,11.03
2018-05-31T00:01:07.699Z,11.06
2018-05-31T00:03:00.393Z,10.77
2018-05-31T00:04:00.222Z,10.59
2018-05-31T00:05:52.926Z,10.58
2018-05-31T00:06:52.750Z,10.59
2018-05-31T00:08:45.415Z,10.81
2018-05-31T00:09:45.292Z,10.91
2018-05-31T00:11:38.835Z,10.81
2018-05-31T00:12:38.658Z,10.81
2018-05-31T00:14:31.317Z,10.63
2018-05-31T00:15:31.186Z,10.65
2018-05-31T00:17:24.734Z,10.68
2018-05-31T00:18:24.566Z,10.66
2018-05-31T00:20:17.268Z,10.83
2018-05-31T00:21:17.103Z,10.91
2018-05-31T00:23:10.610Z,10.66
2018-05-31T00:24:10.477Z,10.59
2018-05-31T00:26:03.187Z,10.58
2018-05-31T00:27:03.006Z,10.43
2018-05-31T00:28:56.516Z,10.65
2018-05-31T00:29:56.389Z,10.58
2018-05-31T00:31:49.088Z,10.56
2018-05-31T00:32:48.918Z,10.62
2018-05-31T00:34:42.427Z,10.63
2018-05-31T00:35:42.298Z,10.59
2018-05-31T00:37:35.005Z,10.68
2018-05-31T00:38:34.827Z,10.73
2018-05-31T00:40:28.337Z,10.84
2018-05-31T00:41:28.202Z,10.84
2018-05-31T00:43:20.911Z,10.98
2018-05-31T00:44:20.735Z,11.07
2018-05-31T00:46:14.246Z,10.92
2018-05-31T00:47:14.115Z,10.81
2018-05-31T00:49:06.811Z,10.84
2018-05-31T00:50:06.645Z,10.94
2018-05-31T00:52:00.155Z,10.95
2018-05-31T00:53:00.024Z,10.89
2018-05-31T00:54:52.730Z,11.06
2018-05-31T00:55:52.556Z,11.09
2018-05-31T00:57:46.067Z,11.10
2018-05-31T00:58:45.941Z,11.17
2018-05-31T01:00:38.629Z,11.17
2018-05-31T01:01:38.465Z,11.03
2018-05-31T01:03:31.123Z,11.02
2018-05-31T01:04:30.995Z,11.03
2018-05-31T01:06:23.696Z,11.11
2018-05-31T01:07:23.525Z,11.27
2018-05-31T01:09:16.190Z,11.10
2018-05-31T01:10:16.061Z,11.19
2018-05-31T01:12:08.759Z,11.16
2018-05-31T01:13:08.593Z,11.24
2018-05-31T01:15:16.367Z,10.89
2018-05-31T01:16:16.197Z,10.88
2018-05-31T01:18:08.865Z,10.91
2018-05-31T01:19:08.735Z,10.80
2018-05-31T01:21:01.440Z,10.76
2018-05-31T01:22:01.274Z,10.80
2018-05-31T01:23:53.940Z,10.66
2018-05-31T01:24:53.806Z,10.56
2018-05-31T01:26:46.508Z,10.66
2018-05-31T01:27:46.337Z,10.73
2018-05-31T01:29:39.041Z,10.73
2018-05-31T01:30:38.909Z,10.65
2018-05-31T01:32:31.609Z,10.65
2018-05-31T01:33:31.440Z,10.66
2018-05-31T01:35:24.102Z,10.62
2018-05-31T01:36:23.971Z,10.58
2018-05-31T01:38:16.673Z,10.58
2018-05-31T01:39:16.500Z,10.62
2018-05-31T01:41:10.017Z,10.70
2018-05-31T01:42:09.882Z,10.68
2018-05-31T01:44:02.575Z,10.66
2018-05-31T01:45:02.412Z,10.62
2018-05-31T01:46:55.919Z,10.58
2018-05-31T01:47:55.790Z,10.63
2018-05-31T01:49:48.488Z,10.59
2018-05-31T01:50:48.319Z,10.53
2018-05-31T01:52:41.828Z,10.46
2018-05-31T01:53:41.700Z,10.42
2018-05-31T01:55:34.397Z,10.44
2018-05-31T01:56:34.226Z,10.44
2018-05-31T01:58:27.807Z,10.46
2018-05-31T01:59:27.677Z,10.47
2018-05-31T02:01:20.371Z,10.58
2018-05-31T02:02:20.210Z,10.51
2018-05-31T02:04:12.871Z,10.62
2018-05-31T02:05:12.735Z,10.58
2018-05-31T02:07:05.431Z,10.60
2018-05-31T02:08:05.264Z,10.58
2018-05-31T02:09:57.969Z,10.68
2018-05-31T02:10:57.799Z,10.59
2018-05-31T02:12:50.458Z,10.70
2018-05-31T02:13:50.325Z,10.66
2018-05-31T02:15:43.021Z,10.65
2018-05-31T02:16:42.855Z,10.68
2018-05-31T02:18:35.554Z,10.70
2018-05-31T02:19:35.380Z,10.60
2018-05-31T02:21:28.039Z,10.73
2018-05-31T02:22:27.911Z,10.56
2018-05-31T02:24:20.615Z,10.63
2018-05-31T02:25:20.441Z,10.73
2018-05-31T02:27:13.115Z,10.70
2018-05-31T02:28:12.980Z,10.55
2018-05-31T02:30:05.681Z,10.43
2018-05-31T02:31:05.508Z,10.53
2018-05-31T02:32:58.174Z,10.43
2018-05-31T02:33:58.042Z,10.47
2018-05-31T02:35:50.743Z,10.51
2018-05-31T02:36:50.578Z,10.47
2018-05-31T02:38:44.084Z,10.53
2018-05-31T02:39:43.955Z,10.42
2018-05-31T02:41:36.656Z,10.42
2018-05-31T02:42:36.485Z,10.46
2018-05-31T02:44:30.002Z,10.53
2018-05-31T02:45:29.865Z,10.46
2018-05-31T02:47:22.613Z,10.37
2018-05-31T02:48:22.440Z,10.33
2018-05-31T02:50:15.105Z,10.42
2018-05-31T02:51:14.971Z,10.42
2018-05-31T02:53:07.669Z,10.37
2018-05-31T02:54:07.499Z,10.34
2018-05-31T02:56:00.161Z,10.37
2018-05-31T02:57:00.026Z,10.37
2018-05-31T02:58:53.577Z,10.36
2018-05-31T02:59:53.408Z,10.30
2018-05-31T03:01:46.071Z,10.28
2018-05-31T03:02:45.937Z,10.32
2018-05-31T03:04:39.514Z,10.34
2018-05-31T03:05:39.346Z,10.30
2018-05-31T03:07:32.119Z,10.33
2018-05-31T03:08:31.979Z,10.37
2018-05-31T03:10:25.502Z,10.32
2018-05-31T03:11:25.371Z,10.33
2018-05-31T03:13:18.103Z,10.22
2018-05-31T03:14:17.931Z,10.25
2018-05-31T03:16:10.607Z,10.24
2018-05-31T03:17:10.476Z,10.22
2018-05-31T03:19:03.179Z,10.24
2018-05-31T03:20:03.009Z,10.22
2018-05-31T03:21:55.667Z,10.17
2018-05-31T03:22:55.539Z,10.22
2018-05-31T03:24:48.236Z,10.14
2018-05-31T03:25:48.064Z,10.15
2018-05-31T03:27:40.733Z,10.21
2018-05-31T03:28:40.602Z,10.15
2018-05-31T03:30:33.368Z,10.17
2018-05-31T03:31:33.202Z,10.12
2018-05-31T03:33:25.880Z,10.18
2018-05-31T03:34:25.747Z,10.15
2018-05-31T03:36:18.451Z,10.19
2018-05-31T03:37:18.277Z,10.17
2018-05-31T03:39:10.938Z,10.14
2018-05-31T03:40:10.806Z,10.12
2018-05-31T03:42:03.506Z,10.14
2018-05-31T03:43:03.333Z,10.03
2018-05-31T03:44:56.003Z,10.15
2018-05-31T03:45:55.868Z,10.15
2018-05-31T03:47:48.568Z,10.12
2018-05-31T03:48:48.399Z,10.10
2018-05-31T03:50:41.914Z,10.18
2018-05-31T03:51:41.789Z,10.18
2018-05-31T03:53:49.546Z,10.15
2018-05-31T03:54:49.378Z,10.09
2018-05-31T03:56:42.079Z,10.22
2018-05-31T03:57:41.904Z,10.15
2018-05-31T03:59:34.565Z,10.15
2018-05-31T04:00:34.429Z,10.12
2018-05-31T04:02:27.134Z,10.07
2018-05-31T04:03:26.960Z,10.14
2018-05-31T04:05:19.622Z,10.25
2018-05-31T04:06:19.490Z,10.14
2018-05-31T04:08:37.647Z,10.19
2018-05-31T04:09:37.484Z,10.14
2018-05-31T04:11:30.185Z,10.10
2018-05-31T04:12:30.015Z,10.15
2018-05-31T04:14:23.528Z,10.26
2018-05-31T04:15:23.395Z,10.30
2018-05-31T04:17:16.192Z,10.25
2018-05-31T04:18:15.997Z,10.36
2018-05-31T04:20:08.774Z,10.42
2018-05-31T04:21:08.602Z,10.44
2018-05-31T04:23:01.371Z,10.46
2018-05-31T04:24:01.198Z,10.46
2018-05-31T04:25:53.906Z,10.55
2018-05-31T04:26:53.731Z,10.55
2018-05-31T04:28:46.399Z,10.58
2018-05-31T04:29:46.269Z,10.71
2018-05-31T04:31:38.962Z,10.70
2018-05-31T04:32:38.797Z,10.74
2018-05-31T04:34:31.464Z,10.83
2018-05-31T04:35:31.328Z,10.86
2018-05-31T04:37:24.083Z,10.89
2018-05-31T04:38:23.908Z,10.94
2018-05-31T04:40:31.645Z,10.84
2018-05-31T04:41:31.511Z,10.81
2018-05-31T04:43:24.214Z,10.91
2018-05-31T04:44:24.042Z,10.89
2018-05-31T04:46:16.706Z,11.02
2018-05-31T04:47:16.576Z,11.10
2018-05-31T04:49:09.341Z,11.20
2018-05-31T04:50:09.251Z,11.39
2018-05-31T04:52:27.304Z,11.59
2018-05-31T04:53:27.331Z,11.74
2018-05-31T04:55:19.876Z,12.01
2018-05-31T04:56:19.702Z,12.29
2018-05-31T04:58:13.721Z,12.46
2018-05-31T04:59:14.417Z,12.60
2018-05-31T05:01:06.288Z,12.62
2018-05-31T05:02:06.128Z,12.54
2018-05-31T05:03:58.795Z,12.64
2018-05-31T05:04:58.663Z,12.78
2018-05-31T05:06:51.376Z,12.99
2018-05-31T05:07:51.203Z,13.07
2018-05-31T05:09:44.112Z,13.30
2018-05-31T05:10:43.976Z,13.44
2018-05-31T05:12:36.686Z,13.62
2018-05-31T05:13:36.516Z,13.54
2018-05-31T05:15:44.269Z,13.59
2018-05-31T05:16:44.138Z,13.63
2018-05-31T05:18:37.137Z,13.63
2018-05-31T05:19:37.026Z,13.59
2018-05-31T05:21:29.341Z,13.77
2018-05-31T05:22:29.210Z,13.88
2018-05-31T05:24:22.196Z,13.83
2018-05-31T05:25:22.035Z,14.01
2018-05-31T05:27:14.739Z,14.13
2018-05-31T05:28:14.574Z,14.21
2018-05-31T05:30:07.235Z,14.47
2018-05-31T05:31:07.103Z,14.62
2018-05-31T05:32:59.817Z,14.69
2018-05-31T05:33:59.643Z,14.61
2018-05-31T05:35:52.423Z,14.37
2018-05-31T05:36:52.182Z,14.27
2018-05-31T05:38:44.911Z,14.10
2018-05-31T05:39:44.718Z,14.13
2018-05-31T05:41:37.386Z,14.37
2018-05-31T05:42:37.257Z,14.53
2018-05-31T05:44:29.966Z,14.74
2018-05-31T05:45:29.796Z,14.98
2018-05-31T05:47:22.463Z,14.68
2018-05-31T05:48:22.331Z,14.44
2018-05-31T05:50:15.118Z,14.56
2018-05-31T05:51:14.878Z,14.69
2018-05-31T05:53:07.539Z,14.49
2018-05-31T05:54:07.411Z,14.42
2018-05-31T05:56:00.115Z,14.68
2018-05-31T05:56:59.951Z,14.61
2018-05-31T05:58:52.658Z,14.49
2018-05-31T05:59:52.490Z,14.43
2018-05-31T06:01:45.184Z,14.65
2018-05-31T06:02:45.029Z,14.60
2018-05-31T06:04:37.731Z,14.44
2018-05-31T06:05:37.570Z,14.56
2018-05-31T06:07:30.284Z,14.46
2018-05-31T06:08:30.116Z,14.53
2018-05-31T06:10:22.797Z,14.72
2018-05-31T06:11:22.661Z,14.93
2018-05-31T06:13:15.433Z,14.95
2018-05-31T06:14:15.263Z,15.02
2018-05-31T06:16:07.934Z,14.71
2018-05-31T06:17:07.805Z,14.65
2018-05-31T06:19:00.524Z,14.57
2018-05-31T06:20:00.354Z,14.49
2018-05-31T06:21:53.025Z,14.68
2018-05-31T06:22:52.895Z,14.86
2018-05-31T06:24:45.613Z,15.20
2018-05-31T06:25:45.438Z,15.30
2018-05-31T06:27:38.112Z,15.43
2018-05-31T06:28:37.984Z,15.57
2018-05-31T06:30:30.690Z,15.97
2018-05-31T06:31:30.527Z,16.23
2018-05-31T06:33:23.192Z,16.50
2018-05-31T06:34:23.064Z,16.53
2018-05-31T06:36:15.765Z,16.88
2018-05-31T06:37:15.683Z,16.78
2018-05-31T06:39:08.295Z,16.88
2018-05-31T06:40:08.169Z,16.95
2018-05-31T06:42:00.956Z,16.85
2018-05-31T06:43:00.756Z,16.90
2018-05-31T06:44:53.378Z,17.13
2018-05-31T06:45:53.258Z,17.32
2018-05-31T06:47:45.954Z,17.13
2018-05-31T06:48:45.794Z,17.07
2018-05-31T06:50:38.467Z,17.04
2018-05-31T06:51:38.343Z,16.88
2018-05-31T06:53:31.059Z,16.86
2018-05-31T06:54:30.885Z,16.99
2018-05-31T06:56:23.556Z,17.47
2018-05-31T06:57:23.437Z,17.54
2018-05-31T06:59:16.140Z,17.62
2018-05-31T07:00:15.977Z,17.54
2018-05-31T07:02:08.672Z,17.32
2018-05-31T07:03:08.518Z,17.44
2018-05-31T07:05:01.236Z,17.30
2018-05-31T07:06:01.065Z,17.26
2018-05-31T07:07:53.732Z,16.88
2018-05-31T07:08:53.606Z,16.85
2018-05-31T07:10:46.320Z,16.77
2018-05-31T07:11:46.155Z,16.67
2018-05-31T07:13:38.896Z,16.81
2018-05-31T07:14:38.770Z,16.81
2018-05-31T07:16:31.502Z,17.00
2018-05-31T07:17:31.338Z,17.28
2018-05-31T07:19:24.011Z,17.54
2018-05-31T07:20:23.880Z,17.66
2018-05-31T07:22:16.592Z,17.94
2018-05-31T07:23:16.426Z,17.91
2018-05-31T07:25:09.161Z,17.82
2018-05-31T07:26:09.038Z,17.79
2018-05-31T07:28:01.791Z,17.63
2018-05-31T07:29:01.618Z,17.64
2018-05-31T07:30:54.298Z,17.59
2018-05-31T07:31:54.175Z,17.63
2018-05-31T07:33:46.887Z,17.73
2018-05-31T07:34:46.722Z,17.78
2018-05-31T07:36:39.389Z,17.79
2018-05-31T07:37:39.265Z,17.85
2018-05-31T07:39:31.974Z,17.53
2018-05-31T07:40:31.807Z,17.46
2018-05-31T07:42:24.498Z,17.44
2018-05-31T07:43:24.372Z,17.43
2018-05-31T07:45:17.149Z,17.46
2018-05-31T07:46:16.922Z,17.62
2018-05-31T07:48:09.596Z,17.64
2018-05-31T07:49:09.477Z,17.84
2018-05-31T07:51:02.201Z,17.62
2018-05-31T07:52:02.035Z,17.82
2018-05-31T07:53:54.718Z,17.63
2018-05-31T07:54:54.594Z,17.55
2018-05-31T07:56:47.300Z,17.97
2018-05-31T07:57:47.133Z,18.19
2018-05-31T07:59:39.845Z,18.62
2018-05-31T08:00:39.679Z,18.77
2018-05-31T08:02:32.354Z,19.18
2018-05-31T08:03:32.230Z,19.32
2018-05-31T08:05:24.933Z,19.54
2018-05-31T08:06:24.771Z,19.51
2018-05-31T08:08:17.661Z,19.35
2018-05-31T08:09:17.541Z,19.28
2018-05-31T08:11:10.252Z,18.80
2018-05-31T08:12:10.085Z,18.39
2018-05-31T08:14:02.761Z,18.15
2018-05-31T08:15:02.639Z,18.12
2018-05-31T08:16:56.207Z,18.12
2018-05-31T08:17:56.047Z,18.19
2018-05-31T08:19:48.718Z,18.25
2018-05-31T08:20:48.593Z,18.18
2018-05-31T08:22:56.385Z,17.99
2018-05-31T08:23:56.216Z,17.89
2018-05-31T08:25:48.885Z,17.78
2018-05-31T08:26:48.758Z,17.57
2018-05-31T08:28:41.549Z,17.63
2018-05-31T08:29:41.386Z,17.57
2018-05-31T08:31:34.068Z,17.54
2018-05-31T08:32:33.934Z,17.32
2018-05-31T08:34:41.720Z,16.85
2018-05-31T08:35:41.550Z,16.85
2018-05-31T08:37:34.223Z,16.85
2018-05-31T08:38:34.095Z,16.99
2018-05-31T08:40:26.809Z,17.22
2018-05-31T08:41:26.641Z,17.32
2018-05-31T08:43:19.347Z,17.44
2018-05-31T08:44:19.184Z,17.41
2018-05-31T08:46:11.940Z,17.29
2018-05-31T08:47:11.727Z,17.30
2018-05-31T08:48:11.611Z,17.29
2018-05-31T08:49:11.489Z,17.30
2018-05-31T08:50:11.371Z,17.32
2018-05-31T08:51:11.252Z,17.32
2018-05-31T08:52:11.140Z,17.47
2018-05-31T08:53:11.018Z,17.47
2018-05-31T08:54:10.892Z,17.59
2018-05-31T08:55:10.774Z,17.59
2018-05-31T08:56:10.656Z,17.69
2018-05-31T08:57:10.535Z,17.79
2018-05-31T08:58:10.421Z,17.84
2018-05-31T08:59:10.298Z,17.94
2018-05-31T09:00:10.178Z,17.97
2018-05-31T09:01:10.057Z,18.02
2018-05-31T09:02:09.941Z,18.03
2018-05-31T09:03:09.824Z,17.89
2018-05-31T09:04:09.704Z,17.76
2018-05-31T09:05:09.586Z,17.70
2018-05-31T09:06:09.468Z,17.67
2018-05-31T09:07:09.346Z,17.64
2018-05-31T09:08:09.227Z,17.74
2018-05-31T09:09:09.109Z,17.54
2018-05-31T09:10:08.988Z,17.48
2018-05-31T09:11:08.872Z,17.30
2018-05-31T09:12:08.757Z,17.32
2018-05-31T09:13:08.631Z,17.40
2018-05-31T09:14:08.512Z,17.48
2018-05-31T09:15:08.409Z,17.54
2018-05-31T09:16:08.276Z,17.55
2018-05-31T09:17:08.156Z,17.67
2018-05-31T09:18:08.036Z,17.64
2018-05-31T09:19:07.918Z,17.67
2018-05-31T09:20:07.805Z,17.57
2018-05-31T09:21:07.680Z,17.54
2018-05-31T09:22:07.562Z,17.55
2018-05-31T09:23:07.442Z,17.43
2018-05-31T09:24:07.324Z,17.44
2018-05-31T09:25:07.207Z,17.43
2018-05-31T09:26:07.097Z,17.41
2018-05-31T09:27:06.966Z,17.53
2018-05-31T09:28:06.848Z,17.51
2018-05-31T09:29:06.725Z,17.50
2018-05-31T09:30:06.614Z,17.46
2018-05-31T09:31:06.489Z,17.46
2018-05-31T09:32:06.372Z,17.14
2018-05-31T09:33:06.255Z,16.92
2018-05-31T09:34:06.133Z,16.88
2018-05-31T09:35:06.068Z,16.68
2018-05-31T09:36:05.893Z,16.78
2018-05-31T09:37:05.776Z,16.77
2018-05-31T09:38:05.655Z,16.71
2018-05-31T09:39:05.538Z,16.56
2018-05-31T09:40:05.420Z,16.55
2018-05-31T09:41:05.305Z,16.70
2018-05-31T09:42:05.178Z,16.71
2018-05-31T09:43:05.061Z,16.78
2018-05-31T09:44:04.943Z,16.85
2018-05-31T09:45:04.821Z,16.86
2018-05-31T09:46:04.703Z,16.70
2018-05-31T09:47:04.582Z,16.70
2018-05-31T09:48:04.463Z,16.52
2018-05-31T09:49:04.361Z,16.38
2018-05-31T09:50:04.227Z,16.12
2018-05-31T09:51:04.104Z,16.26
2018-05-31T09:52:03.987Z,16.18
2018-05-31T09:53:03.871Z,16.22
2018-05-31T09:54:03.747Z,16.30
2018-05-31T09:55:03.633Z,16.27
2018-05-31T09:56:03.508Z,16.26
2018-05-31T09:57:03.388Z,16.33
2018-05-31T09:58:03.272Z,16.31
2018-05-31T09:59:03.154Z,16.40
2018-05-31T10:00:03.033Z,16.44
2018-05-31T10:01:02.913Z,16.49
2018-05-31T10:02:02.792Z,16.34
2018-05-31T10:03:02.670Z,16.35
2018-05-31T10:04:02.554Z,16.34
2018-05-31T10:05:02.454Z,16.33
2018-05-31T10:06:02.318Z,16.30
2018-05-31T10:07:02.193Z,16.34
2018-05-31T10:08:02.079Z,16.37
2018-05-31T10:09:01.953Z,16.18
2018-05-31T10:10:01.836Z,16.26
2018-05-31T10:11:01.719Z,16.34
2018-05-31T10:12:01.598Z,16.42
2018-05-31T10:13:01.476Z,16.45
2018-05-31T10:14:01.367Z,16.58
2018-05-31T10:15:01.239Z,16.67
2018-05-31T10:16:01.119Z,16.70
2018-05-31T10:17:01.000Z,16.75
2018-05-31T10:18:00.880Z,16.71
2018-05-31T10:19:00.760Z,16.80
2018-05-31T10:20:00.639Z,16.81
2018-05-31T10:21:00.519Z,16.86
2018-05-31T10:22:00.401Z,16.83
2018-05-31T10:23:00.281Z,16.86
2018-05-31T10:24:00.166Z,16.73
2018-05-31T10:25:00.043Z,16.65
2018-05-31T10:25:59.923Z,16.65
2018-05-31T10:26:59.803Z,16.68
2018-05-31T10:27:59.689Z,16.73
2018-05-31T10:28:59.565Z,16.73
2018-05-31T10:29:59.445Z,16.70
2018-05-31T10:30:59.326Z,16.85
2018-05-31T10:31:59.208Z,16.78
2018-05-31T10:32:59.089Z,16.74
2018-05-31T10:33:58.972Z,16.83
2018-05-31T10:34:58.851Z,16.71
2018-05-31T10:35:58.732Z,16.50
2018-05-31T10:36:58.609Z,16.42
2018-05-31T10:37:58.492Z,16.40
2018-05-31T10:38:58.371Z,16.33
2018-05-31T10:39:58.255Z,16.42
2018-05-31T10:40:58.133Z,16.33
2018-05-31T10:41:58.012Z,16.38
2018-05-31T10:42:57.895Z,16.34
2018-05-31T10:43:57.773Z,16.38
2018-05-31T10:44:57.654Z,16.44
2018-05-31T10:45:57.535Z,16.44
2018-05-31T10:46:57.416Z,16.56
2018-05-31T10:47:57.300Z,16.52
2018-05-31T10:48:57.175Z,16.60
2018-05-31T10:49:57.059Z,16.67
2018-05-31T10:50:56.937Z,16.71
2018-05-31T10:51:56.820Z,16.81
2018-05-31T10:52:56.697Z,16.80
2018-05-31T10:53:56.578Z,16.86
2018-05-31T10:54:56.462Z,16.86
2018-05-31T10:55:56.345Z,16.78
2018-05-31T10:56:56.219Z,16.81
2018-05-31T10:57:56.099Z,16.90
2018-05-31T10:58:55.983Z,17.06
2018-05-31T10:59:55.863Z,17.14
2018-05-31T11:00:55.747Z,17.26
2018-05-31T11:01:55.624Z,17.35
2018-05-31T11:02:55.505Z,17.50
2018-05-31T11:03:55.386Z,17.71
2018-05-31T11:04:55.266Z,17.94
2018-05-31T11:05:55.147Z,18.06
2018-05-31T11:06:55.028Z,18.21
2018-05-31T11:07:54.907Z,18.42
2018-05-31T11:08:54.790Z,18.57
2018-05-31T11:09:54.672Z,18.94
2018-05-31T11:10:54.553Z,19.24
2018-05-31T11:11:54.433Z,19.35
2018-05-31T11:12:54.350Z,19.69
2018-05-31T11:13:54.197Z,19.91
2018-05-31T11:14:54.129Z,19.86
2018-05-31T11:15:53.958Z,19.91
2018-05-31T11:16:53.839Z,20.16
2018-05-31T11:17:53.722Z,20.27
2018-05-31T11:18:53.606Z,20.54
2018-05-31T11:19:53.486Z,21.06
2018-05-31T11:20:53.368Z,21.16
2018-05-31T11:21:53.251Z,21.27
2018-05-31T11:22:53.135Z,21.35
2018-05-31T11:23:53.019Z,21.32
2018-05-31T11:24:52.900Z,21.27
2018-05-31T11:25:52.787Z,21.26
2018-05-31T11:26:52.668Z,21.11
2018-05-31T11:27:52.551Z,21.13
2018-05-31T11:28:52.437Z,21.29
2018-05-31T11:29:52.316Z,21.23
2018-05-31T11:30:52.202Z,21.14
2018-05-31T11:31:52.086Z,20.83
2018-05-31T11:32:51.970Z,20.79
2018-05-31T11:33:51.853Z,20.96
2018-05-31T11:34:51.737Z,21.06
2018-05-31T11:35:51.618Z,21.17
2018-05-31T11:36:51.502Z,20.98
2018-05-31T11:37:51.385Z,21.05
2018-05-31T11:38:51.268Z,20.87
2018-05-31T11:39:51.155Z,20.66
2018-05-31T11:40:51.042Z,20.56
2018-05-31T11:41:50.921Z,20.58
2018-05-31T11:42:50.805Z,20.39
2018-05-31T11:43:50.688Z,20.27
2018-05-31T11:44:50.570Z,20.03
2018-05-31T11:45:50.455Z,20.03
2018-05-31T11:46:50.341Z,20.24
2018-05-31T11:47:50.223Z,20.34
2018-05-31T11:48:50.106Z,20.49
2018-05-31T11:49:49.987Z,20.58
2018-05-31T11:50:49.871Z,20.56
2018-05-31T11:51:49.755Z,20.43
2018-05-31T11:52:49.642Z,20.39
2018-05-31T11:53:49.522Z,20.41
2018-05-31T11:54:49.406Z,20.47
2018-05-31T11:55:49.293Z,20.56
2018-05-31T11:56:49.172Z,20.59
2018-05-31T11:57:49.058Z,20.62
2018-05-31T11:58:48.939Z,20.77
2018-05-31T11:59:48.824Z,20.74
2018-05-31T12:00:48.707Z,20.80
2018-05-31T12:01:48.594Z,21.34
2018-05-31T12:02:48.481Z,21.38
2018-05-31T12:03:48.380Z,21.08
2018-05-31T12:04:48.242Z,21.08
2018-05-31T12:05:48.126Z,21.08
2018-05-31T12:06:48.016Z,20.99
2018-05-31T12:07:47.898Z,21.48
2018-05-31T12:08:47.777Z,21.48
2018-05-31T12:09:47.663Z,21.61
2018-05-31T12:10:47.570Z,22.69
2018-05-31T12:11:47.434Z,23.39
2018-05-31T12:12:47.314Z,24.08
2018-05-31T12:13:47.200Z,24.82
2018-05-31T12:14:47.085Z,25.54
2018-05-31T12:15:46.969Z,25.44
2018-05-31T12:16:46.852Z,25.99
2018-05-31T12:17:46.738Z,26.29
2018-05-31T12:18:46.624Z,26.24
2018-05-31T12:19:46.531Z,26.21
2018-05-31T12:20:46.407Z,26.40
2018-05-31T12:21:46.281Z,26.49
2018-05-31T12:22:46.170Z,25.50
2018-05-31T12:23:46.057Z,24.75
2018-05-31T12:24:45.943Z,24.19
2018-05-31T12:25:45.827Z,24.68
2018-05-31T12:26:45.713Z,25.06
2018-05-31T12:27:45.599Z,24.37
2018-05-31T12:28:45.489Z,23.85
2018-05-31T12:29:45.375Z,23.39
2018-05-31T12:30:45.260Z,23.86
2018-05-31T12:31:45.145Z,24.20
2018-05-31T12:32:45.031Z,24.47
2018-05-31T12:33:44.920Z,23.92
2018-05-31T12:34:44.803Z,24.24
2018-05-31T12:35:44.695Z,24.97
2018-05-31T12:36:44.584Z,25.86
2018-05-31T12:37:44.515Z,26.81
2018-05-31T12:38:44.353Z,27.39
2018-05-31T12:39:44.239Z,26.44
2018-05-31T12:40:44.126Z,26.95
2018-05-31T12:41:44.012Z,27.42
2018-05-31T12:42:43.904Z,27.57
2018-05-31T12:43:43.791Z,28.21
2018-05-31T12:44:43.674Z,28.28
2018-05-31T12:45:43.566Z,27.77
2018-05-31T12:46:43.455Z,26.47
2018-05-31T12:47:43.339Z,26.27
2018-05-31T12:48:43.227Z,27.06
2018-05-31T12:49:43.116Z,25.69
2018-05-31T12:50:43.005Z,25.62
2018-05-31T12:51:42.894Z,25.69
2018-05-31T12:52:42.782Z,26.61
2018-05-31T12:53:42.698Z,26.43
2018-05-31T12:54:42.557Z,26.50
2018-05-31T12:55:42.447Z,26.95
2018-05-31T12:56:42.337Z,27.04
2018-05-31T12:57:42.232Z,27.70
2018-05-31T12:58:42.115Z,27.71
2018-05-31T12:59:42.001Z,27.82
2018-05-31T13:00:41.898Z,28.78
2018-05-31T13:01:41.782Z,28.82
2018-05-31T13:02:41.675Z,28.96
2018-05-31T13:03:41.564Z,29.33
2018-05-31T13:04:41.460Z,29.63
2018-05-31T13:05:41.360Z,29.90
2018-05-31T13:06:41.239Z,30.31
2018-05-31T13:07:41.134Z,30.19
2018-05-31T13:08:41.024Z,29.90
2018-05-31T13:09:40.923Z,29.97
2018-05-31T13:10:40.810Z,30.40
2018-05-31T13:11:40.703Z,29.59
2018-05-31T13:12:40.599Z,27.96
2018-05-31T13:13:40.502Z,27.17
2018-05-31T13:14:40.383Z,27.62
2018-05-31T13:15:40.278Z,26.42
2018-05-31T13:16:40.171Z,24.75
2018-05-31T13:17:40.065Z,23.72
2018-05-31T13:18:39.956Z,23.04
2018-05-31T13:19:39.847Z,24.13
2018-05-31T13:20:39.742Z,25.07
2018-05-31T13:21:39.631Z,25.93
2018-05-31T13:22:39.522Z,26.62
2018-05-31T13:23:39.415Z,26.62
2018-05-31T13:24:39.340Z,27.10
2018-05-31T13:25:39.198Z,27.20
2018-05-31T13:26:39.094Z,26.77
2018-05-31T13:27:38.985Z,25.99
2018-05-31T13:28:38.876Z,24.47
2018-05-31T13:29:38.771Z,23.32
2018-05-31T13:30:38.662Z,22.31
2018-05-31T13:31:38.554Z,21.83
2018-05-31T13:32:38.446Z,22.06
2018-05-31T13:33:38.336Z,21.76
2018-05-31T13:34:38.227Z,21.67
2018-05-31T13:35:38.117Z,21.85
2018-05-31T13:36:38.008Z,21.38
2018-05-31T13:37:37.897Z,20.95
2018-05-31T13:38:37.783Z,20.89
2018-05-31T13:39:37.674Z,20.61
2018-05-31T13:40:37.561Z,20.54
2018-05-31T13:41:37.449Z,20.64
2018-05-31T13:42:37.336Z,20.54
2018-05-31T13:43:37.223Z,20.98
2018-05-31T13:44:37.111Z,20.90
2018-05-31T13:45:36.998Z,20.66
2018-05-31T13:46:36.884Z,20.65
2018-05-31T13:47:36.770Z,20.65
2018-05-31T13:48:36.679Z,20.56
2018-05-31T13:49:36.540Z,20.43
2018-05-31T13:50:36.425Z,20.39
2018-05-31T13:51:36.311Z,20.49
2018-05-31T13:52:36.196Z,20.24
2018-05-31T13:53:36.081Z,20.24
2018-05-31T13:54:35.966Z,20.27
2018-05-31T13:55:35.854Z,20.25
2018-05-31T13:56:35.739Z,20.18
2018-05-31T13:57:35.621Z,20.23
2018-05-31T13:58:35.507Z,20.18
2018-05-31T13:59:35.392Z,20.25
2018-05-31T14:00:35.275Z,20.61
2018-05-31T14:01:35.164Z,20.47
2018-05-31T14:02:35.044Z,20.56
2018-05-31T14:03:34.928Z,20.42
2018-05-31T14:04:34.808Z,20.62
2018-05-31T14:05:34.693Z,22.09
2018-05-31T14:06:34.580Z,22.77
2018-05-31T14:07:34.466Z,24.87
2018-05-31T14:08:34.348Z,25.99
2018-05-31T14:09:34.307Z,24.69
2018-05-31T14:10:34.120Z,26.17
2018-05-31T14:11:34.013Z,27.19
2018-05-31T14:12:33.900Z,28.01
2018-05-31T14:13:33.787Z,28.88
2018-05-31T14:14:33.676Z,28.60
2018-05-31T14:15:33.566Z,28.78
2018-05-31T14:16:33.454Z,27.13
2018-05-31T14:17:33.349Z,25.52
2018-05-31T14:18:33.240Z,25.24
2018-05-31T14:19:33.135Z,26.09
2018-05-31T14:20:33.026Z,24.61
2018-05-31T14:21:32.917Z,24.19
2018-05-31T14:22:32.809Z,23.71
2018-05-31T14:23:32.700Z,24.79
2018-05-31T14:24:32.596Z,24.85
2018-05-31T14:25:32.485Z,24.35
2018-05-31T14:26:32.377Z,24.50
2018-05-31T14:27:32.270Z,23.65
2018-05-31T14:28:32.161Z,23.04
2018-05-31T14:29:32.050Z,22.69
2018-05-31T14:30:31.939Z,21.91
2018-05-31T14:31:31.850Z,21.46
2018-05-31T14:32:31.719Z,21.48
2018-05-31T14:33:31.607Z,21.13
2018-05-31T14:34:31.500Z,20.81
2018-05-31T14:35:31.387Z,20.83
2018-05-31T14:36:31.275Z,20.84
2018-05-31T14:37:31.164Z,20.86
2018-05-31T14:38:31.052Z,20.72
2018-05-31T14:39:30.939Z,20.59
2018-05-31T14:40:30.823Z,20.58
2018-05-31T14:41:30.717Z,20.41
2018-05-31T14:42:30.600Z,20.21
2018-05-31T14:43:30.482Z,20.24
2018-05-31T14:44:30.368Z,20.41
2018-05-31T14:45:30.254Z,20.35
2018-05-31T14:46:30.141Z,20.43
2018-05-31T14:47:30.031Z,20.39
2018-05-31T14:48:29.910Z,20.30
2018-05-31T14:49:29.795Z,20.35
2018-05-31T14:50:29.680Z,20.34
2018-05-31T14:51:29.587Z,20.28
2018-05-31T14:52:29.449Z,20.28
2018-05-31T14:53:29.334Z,20.05
2018-05-31T14:54:29.223Z,19.83
2018-05-31T14:55:29.103Z,19.63
2018-05-31T14:56:28.991Z,19.33
2018-05-31T14:57:28.868Z,19.29
2018-05-31T14:58:28.754Z,19.35
2018-05-31T14:59:28.642Z,19.35
2018-05-31T15:00:28.539Z,19.50
2018-05-31T15:01:28.404Z,19.65
2018-05-31T15:02:28.291Z,19.68
2018-05-31T15:03:28.170Z,19.76
2018-05-31T15:04:28.057Z,19.78
2018-05-31T15:05:27.938Z,19.90
2018-05-31T15:06:27.829Z,20.03
2018-05-31T15:07:27.740Z,20.18
2018-05-31T15:08:27.587Z,20.33
2018-05-31T15:09:27.471Z,20.51
2018-05-31T15:10:27.353Z,20.64
2018-05-31T15:11:27.245Z,20.86
2018-05-31T15:12:27.127Z,20.98
2018-05-31T15:13:27.006Z,20.89
2018-05-31T15:14:26.888Z,20.77
2018-05-31T15:15:26.771Z,20.72
2018-05-31T15:16:26.652Z,20.76
2018-05-31T15:17:26.556Z,20.81
2018-05-31T15:18:26.561Z,20.77
2018-05-31T15:19:26.417Z,21.04
2018-05-31T15:20:26.196Z,21.16
2018-05-31T15:21:26.075Z,21.11
2018-05-31T15:22:26.073Z,20.98
2018-05-31T15:23:25.842Z,20.87
2018-05-31T15:24:25.868Z,20.93
2018-05-31T15:25:25.606Z,21.14
2018-05-31T15:26:25.564Z,21.17
2018-05-31T15:27:25.374Z,21.20
2018-05-31T15:28:25.259Z,21.24
2018-05-31T15:29:25.159Z,21.19
2018-05-31T15:30:25.027Z,21.20
2018-05-31T15:31:24.913Z,21.27
2018-05-31T15:32:24.797Z,21.30
2018-05-31T15:33:25.621Z,21.38